Diego Silva

Olheiro-Chefe - Sport Recife
20 Nov 2027
Sábado
Processo

Personalidade

Adaptabilidade (12) Ambição (11) Controvérsia (17) Lealdade (9) Pressão (20) Profissionalismo (17) Espírito Esportivo (19) Temperamento (20)

Perfil

Estilo de Treinamento Democrático
Licença Continental B
Determinação 6
Gestão de Pessoas 12
Motivação 8
Disciplina 8
Satisfação no Trabalho
100%
Fadiga
0%
Função Olheiro-Chefe
Salário 44.7K p/s
Contrato 14.03.2030

Desempenho

Comportamento Bom
Eficácia do Treinamento
40%
Desenvolvimento do Jogador
65%
Prevenção de Lesões
25%
Implementação Tática
50%

Eventos Recentes

Participou de uma reunião de recrutamento agora
Participou de uma reunião de recrutamento agora
Recomendou um alvo de transferência agora
Recomendou um alvo de transferência agora
Recomendou um alvo de transferência 7d atrás
Recomendou um alvo de transferência 7d atrás
Recomendou um alvo de transferência 7d atrás
Participou de uma reunião de recrutamento 7d atrás

Monitorando agora

159
Jogador Clube Status Habilidade Confiança Observado Última observação Último voto
Aidomo Emakhu Oxford United Perdido 131 / 129 40% 1 19.07.2027 -
Dale Taylor Blackpool Ativo 126 / 124 40% 1 19.07.2027 -
George Hirst Stoke City Ativo 145 / 149 40% 1 19.07.2027 -
Joe Gelhardt Hull City Perdido 144 / 148 40% 1 12.07.2027 -
Jovon Makama Norwich City Ativo 128 / 134 40% 1 12.07.2027 -
Camilo Durán Bloemfontein Celtic Ativo 121 / 114 40% 6 14.06.2027 -
Mateo Pellegrino Fiorentina Ativo 132 / 152 40% 1 14.06.2027 -
Aune Heggebø West Bromwich Albion Ativo 131 / 120 40% 1 14.06.2027 -
Konstantin Tyukavin Arsenal Negociando 132 / 133 66% 1 01.06.2027 Aprovar
Martim Cunha Porto Ativo 94 / 110 40% 1 31.05.2027 -
Enzo Cardozo Virtus Entella Ativo 115 / 107 40% 1 31.05.2027 -
Joel McGregor Swindon Town Ativo 83 / 108 40% 1 31.05.2027 -
Christian Krasnodar Ativo 144 / 139 40% 6 30.05.2027 -
Jacob Greaves Ipswich Town Ativo 131 / 141 40% 6 30.05.2027 -
Brooke Norton-Cuffy Hull City Ativo 144 / 137 40% 5 28.05.2027 -
Enzo Barrenechea Burnley Ativo 144 / 160 40% 4 28.05.2027 -
Tariq Lamptey Queens Park Rangers Ativo 132 / 135 40% 2 27.05.2027 -
Mats Wieffer Brighton Ativo 139 / 150 40% 4 27.05.2027 -
Harry Clarke Preston Ativo 128 / 119 40% 2 27.05.2027 -
Ryan Sessegnon Fulham Ativo 138 / 150 40% 4 26.05.2027 -
Yehor Yarmoliuk Brentford Ativo 157 / 141 40% 5 25.05.2027 -
James Garner Everton Ativo 149 / 156 40% 4 24.05.2027 -
Ramón Terrats Getafe Ativo 151 / 128 40% 10 23.05.2027 -
Jonathan De Irastorza Levante Ativo 116 / 115 40% 2 23.05.2027 -
Riquelme Thompson-Jones Shrewsbury Town Ativo 105 / 121 40% 2 23.05.2027 -
Gonçalo Oliveira Benfica Ativo 113 / 128 40% 1 21.05.2027 -
Bobby Thomas Coventry City Ativo 128 / 145 40% 4 19.05.2027 -
Tim Iroegbunam Hull City Ativo 137 / 139 40% 3 19.05.2027 -
Neco Williams Nottingham Forest Ativo 135 / 136 40% 2 16.05.2027 -
Alex Scott Bournemouth Ativo 149 / 153 40% 6 16.05.2027 -
Lucas Pires Burnley Ativo 134 / 125 40% 1 15.05.2027 -
Roger François Udinese Ativo 139 / 133 40% 3 13.05.2027 -
André Wolverhampton Ativo 148 / 138 40% 5 12.05.2027 -
Jordan Beyer Burnley Ativo 136 / 125 40% 2 11.05.2027 -
Isma Ruiz Córdoba Ativo 139 / 122 40% 1 10.05.2027 -
Adrien Truffert Bournemouth Ativo 149 / 144 40% 3 08.05.2027 -
Quinten Timber Crystal Palace Ativo 153 / 142 40% 1 08.05.2027 -
Callum Doyle Wrexham Ativo 136 / 122 40% 3 06.05.2027 -
Florentino Luís Ipswich Town Ativo 138 / 136 40% 3 05.05.2027 -
Max Johnston Derby County Ativo 139 / 128 40% 1 04.05.2027 -
Evertow Santa Clara Ativo 92 / 88 40% 1 04.05.2027 -
Sam Curtis Swindon Town Ativo 106 / 108 40% 1 02.05.2027 -
Tyrell Malacia Derby County Ativo 127 / 142 40% 3 28.04.2027 -
Nathan Collins Brentford Ativo 149 / 140 40% 1 28.04.2027 -
Eddy Doué Rio Ave Ativo 107 / 100 40% 1 27.04.2027 -
Yasin Ayari Brighton Ativo 156 / 152 40% 1 25.04.2027 -
Pedro Henrique Shakhtar Ativo 136 / 127 40% 8 23.04.2027 -
Murillo Nottingham Forest Ativo 146 / 163 40% 2 23.04.2027 -
Maeson King Blackpool Ativo 100 / 119 40% 1 21.04.2027 -
Tiago Freitas Benfica Ativo 113 / 121 40% 1 21.04.2027 -
Abraham Paintsil Hasaacas Ativo 93 / 102 40% 1 20.04.2027 -
Óscar Mingueza Crystal Palace Ativo 149 / 133 40% 1 19.04.2027 -
Jacques Ekomié Wrexham Ativo 134 / 132 40% 2 18.04.2027 -
Ethan Galbraith Swansea City Ativo 145 / 149 40% 3 14.04.2027 -
João Gomes Aston Villa Ativo 133 / 139 40% 5 13.04.2027 -
Luke McNally Bristol City Ativo 141 / 138 40% 1 13.04.2027 -
Imrân Louza Watford Ativo 132 / 120 40% 1 13.04.2027 -
Diego Costa Krasnodar Ativo 135 / 122 40% 2 12.04.2027 -
Habib Diarra Sunderland Ativo 151 / 127 40% 2 11.04.2027 -
Alessandro Buongiorno Sassuolo Ativo 160 / 152 40% 1 11.04.2027 -
Aidan Morris Middlesbrough Ativo 131 / 146 40% 2 09.04.2027 -
Danilo Botafogo Ativo 133 / 148 40% 3 09.04.2027 -
Pablo Penafiel Ativo 96 / 96 40% 1 08.04.2027 -
Milan van Ewijk Coventry City Ativo 122 / 121 40% 3 06.04.2027 -
Lucas Da Cunha Como Ativo 147 / 131 40% 1 06.04.2027 -
Alexandro Bernabei Internacional Ativo 144 / 129 40% 7 02.04.2027 -
Álex Valle Como Ativo 133 / 142 40% 1 01.04.2027 -
Dinis Pinto Moreirense Ativo 138 / 144 40% 4 31.03.2027 -
João Simões Sporting CP Ativo 121 / 151 40% 3 30.03.2027 -
Sergi Altimira Sporting CP Ativo 141 / 127 40% 3 29.03.2027 -
Gustaf Lagerbielke Braga Ativo 130 / 130 40% 4 27.03.2027 -
Oliver Skipp Leicester City Ativo 123 / 137 40% 5 26.03.2027 -
Rodrigo Pinheiro Famalicao Ativo 118 / 123 40% 4 25.03.2027 -
Víctor Gómez Braga Ativo 147 / 150 40% 2 24.03.2027 -
Rubens Dinamo Moscow Ativo 141 / 127 40% 4 19.03.2027 -
Francisco Moura Penafiel Ativo 144 / 132 40% 8 19.03.2027 -
Jordan Holsgrove Estoril Praia Ativo 131 / 126 40% 1 08.03.2027 -
Victor Froholdt Porto Ativo 140 / 155 40% 1 04.03.2027 -
Maximiliano Araújo Sporting CP Ativo 154 / 140 40% 1 24.02.2027 -
Jean-Baptiste Gorby Braga Ativo 128 / 124 40% 3 22.02.2027 -
Gustavo Marques Bragantino Ativo 129 / 127 40% 1 22.02.2027 -
Eduardo Quaresma Sporting CP Ativo 145 / 157 40% 1 21.02.2027 -
Gabriel Pereira FC Copenhagen Ativo 120 / 135 40% 2 20.02.2027 -
Max Bird Birmingham Ativo 120 / 141 40% 2 18.02.2027 -
Iván Fresneda Sporting CP Ativo 131 / 154 40% 2 15.02.2027 -
Santiago Sosa Vasco da Gama Ativo 126 / 125 40% 3 13.02.2027 -
Bright Arrey-Mbi Braga Ativo 146 / 127 40% 1 12.02.2027 -
Matheuzinho Corinthians Ativo 124 / 120 40% 1 11.02.2027 -
Luciano Juba Bahia Ativo 137 / 123 40% 3 10.02.2027 -
Lucas Piton Vasco da Gama Ativo 128 / 127 40% 2 06.02.2027 -
Alan Varela Porto Ativo 137 / 154 40% 1 01.02.2027 -
Josh Wynder Benfica Ativo 114 / 125 40% 1 22.12.2026 -
Jalen Blesa Rio Ave Ativo 127 / 104 40% 3 14.12.2026 -
Max Svensson Penafiel Ativo 101 / 97 40% 2 14.12.2026 -
Bitello Empoli Negociando 135 / 135 91% 1 01.12.2026 Aprovar
Ngal'Ayel Mukau Sochaux Ativo 134 / 139 66% 1 01.12.2026 Aprovar
Dawda Camara Alverca Ativo 106 / 105 40% 2 30.11.2026 -
Gabriel Tigrão Académico de Viseu Ativo 103 / 89 40% 5 30.11.2026 -
Rumarn Burrell Queens Park Rangers Ativo 135 / 112 40% 1 30.11.2026 -
João Paulo Crawley Town Ativo 110 / 110 40% 5 28.11.2026 -
Marcos Paulo Juventude Ativo 114 / 117 40% 5 28.11.2026 -
Yuri Alberto Corinthians Perdido 149 / 140 40% 3 28.11.2026 -
Kahiser Lenis Feirense Ativo 118 / 114 40% 2 27.11.2026 -
Gustavo Pereira Oliveirense Ativo 95 / 85 40% 5 26.11.2026 -
Luccas Paraízo Leixões Ativo 117 / 111 40% 4 26.11.2026 -
Gabriel Novaes Leixões Ativo 118 / 97 40% 3 25.11.2026 -
Yanis Begraoui Estoril Praia Ativo 128 / 123 40% 3 22.11.2026 -
Rodrigo Castillo Fluminense Ativo 123 / 124 40% 2 22.11.2026 -
Negueba Mirassol Ativo 133 / 121 40% 1 20.11.2026 -
Gabriel Silva Braga Ativo 130 / 142 40% 6 19.11.2026 -
Vitinho Internacional Ativo 127 / 128 40% 3 19.11.2026 -
Matheus Davó Maccabi Netanya Ativo 129 / 105 40% 1 18.11.2026 -
Pau Víctor Estrela da Amadora Ativo 152 / 130 40% 8 17.11.2026 Observar
Jonas Wind Braga Ativo 146 / 137 40% 4 16.11.2026 Observar
Figueiredo Alverca Ativo 123 / 118 40% 3 15.11.2026 -
Guilherme Neiva AVS Ativo 98 / 108 40% 7 15.11.2026 -
Vinícius Lopes Santa Clara Ativo 134 / 112 40% 4 10.11.2026 -
Zé Leite Moreirense Ativo 127 / 126 40% 1 09.11.2026 -
Matheus Nascimento Houston Dynamo Ativo 128 / 115 40% 3 04.11.2026 -
Welinton Torrão Santa Clara Ativo 114 / 123 40% 2 02.11.2026 -
Roberto Fernández Braga Ativo 137 / 153 40% 5 30.10.2026 -
Alfonso Trezza Arouca Ativo 129 / 134 40% 1 30.10.2026 -
Korede Osundina Casa Pia Ativo 107 / 117 40% 1 30.10.2026 -
Diego Lainez Tigres Ativo 138 / 127 40% 1 30.10.2026 -
Santi García Gil Vicente Ativo 130 / 121 40% 1 29.10.2026 -
Luiz Henrique VfB Stuttgart Ativo 144 / 139 40% 1 29.10.2026 -
Gustavo Silva Vitoria Guimaraes Ativo 122 / 117 40% 4 26.10.2026 -
Talles Magno New York City Ativo 121 / 144 40% 2 25.10.2026 -
Gabriel Veron Porto Ativo 114 / 119 40% 4 23.10.2026 -
Nicolás Cordero Aldosivi Ativo 126 / 118 40% 2 22.10.2026 -
Francis Amuzu Grêmio Ativo 139 / 128 40% 1 19.10.2026 -
Juan Bisanz Huracán Ativo 126 / 117 40% 1 13.10.2026 -
Henry Mosquera Bragantino Ativo 139 / 124 40% 1 13.10.2026 -
Marquinhos Spartak Moscow Ativo 118 / 142 40% 1 13.10.2026 -
Kelvin Yeboah Minnesota United FC Ativo 127 / 134 40% 1 09.10.2026 -
Gianluca Prestianni Benfica Ativo 139 / 138 40% 2 08.10.2026 -
Erick Pulga Bahia Ativo 126 / 134 40% 1 08.10.2026 -
William Gomes Porto Ativo 132 / 131 40% 1 08.10.2026 -
Ramiro Ruiz Rodríguez Atlético Tucumán Ativo 114 / 126 40% 1 05.10.2026 -
Rafael Navarro St. Louis CITY SC Ativo 115 / 109 40% 1 30.09.2026 -
Alexis Cuello San Lorenzo Ativo 129 / 134 40% 2 27.09.2026 -
Igor Paixão Olympique de Marseille Ativo 153 / 135 40% 3 27.09.2026 -
Rodrigo Muniz Fulham Ativo 130 / 150 40% 1 23.09.2026 -
Gabriel Barbosa Farense Ativo 104 / 124 40% 1 22.09.2026 -
Pablo Ruan Nacional Ativo 119 / 96 40% 2 21.09.2026 -
Denzel Lusitânia Lourosa Ativo 104 / 111 40% 2 20.09.2026 -
Favio Cabral Mitre Ativo 116 / 113 40% 1 20.09.2026 -
Helinho Toluca Ativo 126 / 110 40% 1 10.08.2026 -
Paulinho Boia Casa Pia Ativo 113 / 102 40% 1 10.08.2026 -
Robinho Estrela da Amadora Ativo 104 / 92 40% 1 10.08.2026 -
Léo Scienza Southampton Ativo 125 / 123 40% 2 07.08.2026 -
MT Santa Clara Ativo 120 / 110 40% 1 07.08.2026 -
Liziero Nacional Ativo 115 / 131 40% 1 07.08.2026 -
Lucas Soares Santa Clara Ativo 107 / 102 40% 1 05.08.2026 -
Lucas Ribeiro Cultural Leonesa Ativo 138 / 118 40% 1 05.08.2026 -
Pedro Maranhão Tondela Ativo 101 / 105 40% 1 05.08.2026 -
Daniel Júnior Nacional Ativo 100 / 103 40% 1 03.08.2026 -
Pepê Porto Ativo 146 / 138 40% 1 03.08.2026 -
Jair Silva Leiria Ativo 96 / 111 40% 1 02.08.2026 -